sensor_id;sensor_type;location;lat;lon;timestamp;P1;durP1;ratioP1;P2;durP2;ratioP2
50102;SDS011;35993;52.604;10.078;2022-08-19T00:00:28;11.18;;;5.40;;
50102;SDS011;35993;52.604;10.078;2022-08-19T00:02:54;10.98;;;4.70;;
50102;SDS011;35993;52.604;10.078;2022-08-19T00:05:20;9.07;;;4.90;;
50102;SDS011;35993;52.604;10.078;2022-08-19T00:07:47;7.72;;;4.75;;
50102;SDS011;35993;52.604;10.078;2022-08-19T00:10:14;8.65;;;4.90;;
50102;SDS011;35993;52.604;10.078;2022-08-19T00:12:41;6.72;;;4.60;;
50102;SDS011;35993;52.604;10.078;2022-08-19T00:15:07;6.43;;;4.53;;
50102;SDS011;35993;52.604;10.078;2022-08-19T00:17:37;7.63;;;4.63;;
50102;SDS011;35993;52.604;10.078;2022-08-19T00:20:07;7.32;;;4.78;;
50102;SDS011;35993;52.604;10.078;2022-08-19T00:22:33;6.22;;;4.45;;
50102;SDS011;35993;52.604;10.078;2022-08-19T00:24:59;7.95;;;4.60;;
50102;SDS011;35993;52.604;10.078;2022-08-19T00:27:25;8.63;;;4.90;;
50102;SDS011;35993;52.604;10.078;2022-08-19T00:29:50;8.10;;;4.50;;
50102;SDS011;35993;52.604;10.078;2022-08-19T00:32:16;8.40;;;4.72;;
50102;SDS011;35993;52.604;10.078;2022-08-19T00:34:42;7.63;;;4.70;;
50102;SDS011;35993;52.604;10.078;2022-08-19T00:37:08;8.00;;;4.85;;
50102;SDS011;35993;52.604;10.078;2022-08-19T00:39:34;7.18;;;4.55;;
50102;SDS011;35993;52.604;10.078;2022-08-19T00:42:00;7.03;;;4.25;;
50102;SDS011;35993;52.604;10.078;2022-08-19T00:44:26;5.95;;;4.22;;
50102;SDS011;35993;52.604;10.078;2022-08-19T00:46:55;7.18;;;4.43;;
50102;SDS011;35993;52.604;10.078;2022-08-19T00:49:29;6.93;;;4.20;;
50102;SDS011;35993;52.604;10.078;2022-08-19T00:52:04;5.68;;;4.53;;
50102;SDS011;35993;52.604;10.078;2022-08-19T00:54:37;8.60;;;4.88;;
50102;SDS011;35993;52.604;10.078;2022-08-19T00:57:05;8.65;;;4.65;;
50102;SDS011;35993;52.604;10.078;2022-08-19T00:59:34;8.85;;;4.47;;
50102;SDS011;35993;52.604;10.078;2022-08-19T01:02:02;7.45;;;5.50;;
50102;SDS011;35993;52.604;10.078;2022-08-19T01:04:29;6.22;;;4.68;;
50102;SDS011;35993;52.604;10.078;2022-08-19T01:06:55;7.65;;;4.70;;
50102;SDS011;35993;52.604;10.078;2022-08-19T01:09:22;7.65;;;4.93;;
50102;SDS011;35993;52.604;10.078;2022-08-19T01:11:47;7.65;;;4.80;;
50102;SDS011;35993;52.604;10.078;2022-08-19T01:14:13;8.95;;;4.75;;
50102;SDS011;35993;52.604;10.078;2022-08-19T01:16:41;9.50;;;5.20;;
50102;SDS011;35993;52.604;10.078;2022-08-19T01:19:24;7.93;;;5.10;;
50102;SDS011;35993;52.604;10.078;2022-08-19T01:22:05;6.60;;;4.45;;
50102;SDS011;35993;52.604;10.078;2022-08-19T01:24:35;7.93;;;4.60;;
50102;SDS011;35993;52.604;10.078;2022-08-19T01:27:03;6.57;;;4.90;;
50102;SDS011;35993;52.604;10.078;2022-08-19T01:29:30;7.95;;;5.95;;
50102;SDS011;35993;52.604;10.078;2022-08-19T01:31:56;7.82;;;5.05;;
50102;SDS011;35993;52.604;10.078;2022-08-19T01:34:22;8.60;;;4.88;;
50102;SDS011;35993;52.604;10.078;2022-08-19T01:36:48;9.40;;;5.50;;
50102;SDS011;35993;52.604;10.078;2022-08-19T01:39:19;7.00;;;4.97;;
50102;SDS011;35993;52.604;10.078;2022-08-19T01:41:49;8.60;;;4.90;;
50102;SDS011;35993;52.604;10.078;2022-08-19T01:44:15;7.97;;;4.75;;
50102;SDS011;35993;52.604;10.078;2022-08-19T01:46:43;8.68;;;4.60;;
50102;SDS011;35993;52.604;10.078;2022-08-19T01:49:09;6.90;;;5.13;;
50102;SDS011;35993;52.604;10.078;2022-08-19T01:51:35;8.70;;;5.45;;
50102;SDS011;35993;52.604;10.078;2022-08-19T01:54:02;7.45;;;4.47;;
50102;SDS011;35993;52.604;10.078;2022-08-19T01:56:28;7.05;;;4.90;;
50102;SDS011;35993;52.604;10.078;2022-08-19T01:58:55;7.78;;;5.40;;
50102;SDS011;35993;52.604;10.078;2022-08-19T02:01:25;6.68;;;5.25;;
50102;SDS011;35993;52.604;10.078;2022-08-19T02:03:50;6.20;;;4.95;;
50102;SDS011;35993;52.604;10.078;2022-08-19T02:06:18;8.85;;;5.43;;
50102;SDS011;35993;52.604;10.078;2022-08-19T02:08:44;7.68;;;5.00;;
50102;SDS011;35993;52.604;10.078;2022-08-19T02:11:18;10.00;;;5.45;;
50102;SDS011;35993;52.604;10.078;2022-08-19T02:13:46;7.22;;;4.65;;
50102;SDS011;35993;52.604;10.078;2022-08-19T02:16:11;6.82;;;4.88;;
50102;SDS011;35993;52.604;10.078;2022-08-19T02:18:37;8.10;;;5.35;;
50102;SDS011;35993;52.604;10.078;2022-08-19T02:21:03;8.05;;;5.30;;
50102;SDS011;35993;52.604;10.078;2022-08-19T02:23:28;7.15;;;5.63;;
50102;SDS011;35993;52.604;10.078;2022-08-19T02:25:54;9.50;;;5.85;;
50102;SDS011;35993;52.604;10.078;2022-08-19T02:28:20;7.80;;;4.97;;
50102;SDS011;35993;52.604;10.078;2022-08-19T02:30:46;8.35;;;5.30;;
50102;SDS011;35993;52.604;10.078;2022-08-19T02:33:12;8.05;;;5.28;;
50102;SDS011;35993;52.604;10.078;2022-08-19T02:35:40;9.38;;;5.78;;
50102;SDS011;35993;52.604;10.078;2022-08-19T02:38:09;8.48;;;4.97;;
50102;SDS011;35993;52.604;10.078;2022-08-19T02:40:51;7.88;;;5.40;;
50102;SDS011;35993;52.604;10.078;2022-08-19T02:43:29;6.57;;;5.18;;
50102;SDS011;35993;52.604;10.078;2022-08-19T02:45:57;9.30;;;4.82;;
50102;SDS011;35993;52.604;10.078;2022-08-19T02:48:23;8.27;;;5.13;;
50102;SDS011;35993;52.604;10.078;2022-08-19T02:50:51;7.78;;;5.43;;
50102;SDS011;35993;52.604;10.078;2022-08-19T02:53:24;7.20;;;5.20;;
50102;SDS011;35993;52.604;10.078;2022-08-19T02:55:51;14.05;;;5.82;;
50102;SDS011;35993;52.604;10.078;2022-08-19T02:58:18;9.80;;;5.45;;
50102;SDS011;35993;52.604;10.078;2022-08-19T03:00:45;10.85;;;5.55;;
50102;SDS011;35993;52.604;10.078;2022-08-19T03:03:13;8.55;;;5.88;;
50102;SDS011;35993;52.604;10.078;2022-08-19T03:05:39;8.50;;;5.80;;
50102;SDS011;35993;52.604;10.078;2022-08-19T03:08:05;8.68;;;6.07;;
50102;SDS011;35993;52.604;10.078;2022-08-19T03:10:31;9.52;;;5.28;;
50102;SDS011;35993;52.604;10.078;2022-08-19T03:12:58;10.75;;;6.10;;
50102;SDS011;35993;52.604;10.078;2022-08-19T03:15:23;7.70;;;5.40;;
50102;SDS011;35993;52.604;10.078;2022-08-19T03:17:49;8.27;;;5.20;;
50102;SDS011;35993;52.604;10.078;2022-08-19T03:20:15;9.07;;;5.97;;
50102;SDS011;35993;52.604;10.078;2022-08-19T03:22:40;9.35;;;6.28;;
50102;SDS011;35993;52.604;10.078;2022-08-19T03:25:06;10.30;;;6.57;;
50102;SDS011;35993;52.604;10.078;2022-08-19T03:27:32;10.25;;;5.97;;
50102;SDS011;35993;52.604;10.078;2022-08-19T03:29:58;10.75;;;6.53;;
50102;SDS011;35993;52.604;10.078;2022-08-19T03:32:24;9.85;;;6.30;;
50102;SDS011;35993;52.604;10.078;2022-08-19T03:34:50;9.95;;;6.45;;
50102;SDS011;35993;52.604;10.078;2022-08-19T03:37:16;8.00;;;6.35;;
50102;SDS011;35993;52.604;10.078;2022-08-19T03:39:41;13.13;;;6.80;;
50102;SDS011;35993;52.604;10.078;2022-08-19T03:42:07;10.00;;;6.72;;
50102;SDS011;35993;52.604;10.078;2022-08-19T03:44:34;8.52;;;6.50;;
50102;SDS011;35993;52.604;10.078;2022-08-19T03:47:01;8.63;;;6.45;;
50102;SDS011;35993;52.604;10.078;2022-08-19T03:49:28;9.15;;;6.65;;
50102;SDS011;35993;52.604;10.078;2022-08-19T03:51:56;11.30;;;7.22;;
50102;SDS011;35993;52.604;10.078;2022-08-19T03:54:25;10.48;;;6.95;;
50102;SDS011;35993;52.604;10.078;2022-08-19T03:56:53;8.85;;;7.03;;
50102;SDS011;35993;52.604;10.078;2022-08-19T03:59:22;9.43;;;6.78;;
50102;SDS011;35993;52.604;10.078;2022-08-19T04:01:54;9.57;;;6.82;;
50102;SDS011;35993;52.604;10.078;2022-08-19T04:04:20;11.23;;;6.65;;
50102;SDS011;35993;52.604;10.078;2022-08-19T04:06:47;9.80;;;7.25;;
50102;SDS011;35993;52.604;10.078;2022-08-19T04:09:13;10.45;;;6.80;;
50102;SDS011;35993;52.604;10.078;2022-08-19T04:11:40;10.15;;;7.00;;
50102;SDS011;35993;52.604;10.078;2022-08-19T04:14:22;11.18;;;7.38;;
50102;SDS011;35993;52.604;10.078;2022-08-19T04:16:51;10.88;;;8.60;;
50102;SDS011;35993;52.604;10.078;2022-08-19T04:19:18;10.75;;;7.53;;
50102;SDS011;35993;52.604;10.078;2022-08-19T04:21:45;11.25;;;7.25;;
50102;SDS011;35993;52.604;10.078;2022-08-19T04:24:12;10.52;;;7.03;;
50102;SDS011;35993;52.604;10.078;2022-08-19T04:26:39;9.98;;;6.75;;
50102;SDS011;35993;52.604;10.078;2022-08-19T04:29:06;10.30;;;6.97;;
50102;SDS011;35993;52.604;10.078;2022-08-19T04:31:34;10.25;;;6.80;;
50102;SDS011;35993;52.604;10.078;2022-08-19T04:34:01;10.05;;;6.72;;
50102;SDS011;35993;52.604;10.078;2022-08-19T04:36:31;9.23;;;6.80;;
50102;SDS011;35993;52.604;10.078;2022-08-19T04:39:00;8.27;;;6.57;;
50102;SDS011;35993;52.604;10.078;2022-08-19T04:41:28;8.25;;;6.25;;
50102;SDS011;35993;52.604;10.078;2022-08-19T04:44:12;10.68;;;6.90;;
50102;SDS011;35993;52.604;10.078;2022-08-19T04:46:39;10.40;;;6.25;;
50102;SDS011;35993;52.604;10.078;2022-08-19T04:49:05;9.70;;;6.53;;
50102;SDS011;35993;52.604;10.078;2022-08-19T04:51:32;9.95;;;6.43;;
50102;SDS011;35993;52.604;10.078;2022-08-19T04:53:58;8.07;;;5.97;;
50102;SDS011;35993;52.604;10.078;2022-08-19T04:56:26;8.80;;;6.43;;
50102;SDS011;35993;52.604;10.078;2022-08-19T04:58:53;8.77;;;6.53;;
50102;SDS011;35993;52.604;10.078;2022-08-19T05:01:24;9.43;;;6.47;;
50102;SDS011;35993;52.604;10.078;2022-08-19T05:03:53;9.95;;;6.85;;
50102;SDS011;35993;52.604;10.078;2022-08-19T05:06:20;8.35;;;6.25;;
50102;SDS011;35993;52.604;10.078;2022-08-19T05:08:47;10.82;;;6.07;;
50102;SDS011;35993;52.604;10.078;2022-08-19T05:11:14;10.38;;;5.97;;
50102;SDS011;35993;52.604;10.078;2022-08-19T05:13:43;8.07;;;5.95;;
50102;SDS011;35993;52.604;10.078;2022-08-19T05:16:10;8.93;;;5.70;;
50102;SDS011;35993;52.604;10.078;2022-08-19T05:18:38;7.03;;;5.90;;
50102;SDS011;35993;52.604;10.078;2022-08-19T05:21:23;8.25;;;6.00;;
50102;SDS011;35993;52.604;10.078;2022-08-19T05:24:08;7.43;;;5.45;;
50102;SDS011;35993;52.604;10.078;2022-08-19T05:26:38;10.05;;;5.90;;
50102;SDS011;35993;52.604;10.078;2022-08-19T05:29:04;8.55;;;5.40;;
50102;SDS011;35993;52.604;10.078;2022-08-19T05:31:32;9.15;;;5.45;;
50102;SDS011;35993;52.604;10.078;2022-08-19T05:33:58;12.52;;;5.32;;
50102;SDS011;35993;52.604;10.078;2022-08-19T05:36:28;8.23;;;4.80;;
50102;SDS011;35993;52.604;10.078;2022-08-19T05:38:54;6.78;;;4.65;;
50102;SDS011;35993;52.604;10.078;2022-08-19T05:41:21;6.22;;;4.60;;
50102;SDS011;35993;52.604;10.078;2022-08-19T05:43:56;8.82;;;5.18;;
50102;SDS011;35993;52.604;10.078;2022-08-19T05:46:22;8.40;;;4.75;;
50102;SDS011;35993;52.604;10.078;2022-08-19T05:48:48;7.60;;;4.68;;
50102;SDS011;35993;52.604;10.078;2022-08-19T05:51:15;8.52;;;4.45;;
50102;SDS011;35993;52.604;10.078;2022-08-19T05:53:41;9.05;;;4.82;;
50102;SDS011;35993;52.604;10.078;2022-08-19T05:56:12;7.18;;;4.55;;
50102;SDS011;35993;52.604;10.078;2022-08-19T05:58:41;8.50;;;4.82;;
50102;SDS011;35993;52.604;10.078;2022-08-19T06:01:14;8.68;;;4.43;;
50102;SDS011;35993;52.604;10.078;2022-08-19T06:03:42;7.15;;;4.70;;
50102;SDS011;35993;52.604;10.078;2022-08-19T06:06:09;6.15;;;4.57;;
50102;SDS011;35993;52.604;10.078;2022-08-19T06:08:36;5.57;;;4.28;;
50102;SDS011;35993;52.604;10.078;2022-08-19T06:12:04;5.57;;;3.88;;
50102;SDS011;35993;52.604;10.078;2022-08-19T06:14:07;7.22;;;4.05;;
50102;SDS011;35993;52.604;10.078;2022-08-19T06:16:35;5.55;;;3.97;;
50102;SDS011;35993;52.604;10.078;2022-08-19T06:19:04;6.13;;;3.80;;
50102;SDS011;35993;52.604;10.078;2022-08-19T06:21:33;5.78;;;3.88;;
50102;SDS011;35993;52.604;10.078;2022-08-19T06:24:01;5.20;;;4.15;;
50102;SDS011;35993;52.604;10.078;2022-08-19T06:26:27;7.57;;;5.07;;
50102;SDS011;35993;52.604;10.078;2022-08-19T06:28:53;6.03;;;3.67;;
50102;SDS011;35993;52.604;10.078;2022-08-19T06:31:24;5.00;;;3.63;;
50102;SDS011;35993;52.604;10.078;2022-08-19T06:33:51;6.60;;;3.53;;
50102;SDS011;35993;52.604;10.078;2022-08-19T06:38:46;5.55;;;3.38;;
50102;SDS011;35993;52.604;10.078;2022-08-19T06:41:12;4.03;;;3.22;;
50102;SDS011;35993;52.604;10.078;2022-08-19T06:43:38;6.40;;;3.85;;
50102;SDS011;35993;52.604;10.078;2022-08-19T06:46:09;5.05;;;3.80;;
50102;SDS011;35993;52.604;10.078;2022-08-19T06:48:36;8.05;;;3.33;;
50102;SDS011;35993;52.604;10.078;2022-08-19T06:51:02;4.93;;;3.47;;
50102;SDS011;35993;52.604;10.078;2022-08-19T06:53:29;5.35;;;3.55;;
50102;SDS011;35993;52.604;10.078;2022-08-19T06:55:54;5.32;;;3.40;;
50102;SDS011;35993;52.604;10.078;2022-08-19T06:58:25;4.68;;;3.38;;
50102;SDS011;35993;52.604;10.078;2022-08-19T07:00:51;6.97;;;3.60;;
50102;SDS011;35993;52.604;10.078;2022-08-19T07:03:16;6.97;;;3.70;;
50102;SDS011;35993;52.604;10.078;2022-08-19T07:05:42;8.68;;;3.70;;
50102;SDS011;35993;52.604;10.078;2022-08-19T07:08:08;7.45;;;3.88;;
50102;SDS011;35993;52.604;10.078;2022-08-19T07:10:35;6.43;;;3.50;;
50102;SDS011;35993;52.604;10.078;2022-08-19T07:13:02;5.22;;;3.50;;
50102;SDS011;35993;52.604;10.078;2022-08-19T07:15:29;6.53;;;3.60;;
50102;SDS011;35993;52.604;10.078;2022-08-19T07:17:55;5.32;;;3.70;;
50102;SDS011;35993;52.604;10.078;2022-08-19T07:20:20;5.53;;;3.80;;
50102;SDS011;35993;52.604;10.078;2022-08-19T07:22:46;4.70;;;3.38;;
50102;SDS011;35993;52.604;10.078;2022-08-19T07:25:12;4.78;;;3.33;;
50102;SDS011;35993;52.604;10.078;2022-08-19T07:27:38;6.47;;;3.58;;
50102;SDS011;35993;52.604;10.078;2022-08-19T07:30:04;5.25;;;3.60;;
50102;SDS011;35993;52.604;10.078;2022-08-19T07:32:30;5.63;;;3.00;;
50102;SDS011;35993;52.604;10.078;2022-08-19T07:34:56;4.35;;;3.20;;
50102;SDS011;35993;52.604;10.078;2022-08-19T07:37:22;7.20;;;3.53;;
50102;SDS011;35993;52.604;10.078;2022-08-19T07:39:49;4.43;;;3.28;;
50102;SDS011;35993;52.604;10.078;2022-08-19T07:42:14;5.03;;;3.40;;
50102;SDS011;35993;52.604;10.078;2022-08-19T07:44:40;5.68;;;3.10;;
50102;SDS011;35993;52.604;10.078;2022-08-19T07:47:07;5.53;;;3.42;;
50102;SDS011;35993;52.604;10.078;2022-08-19T07:49:33;5.10;;;3.13;;
50102;SDS011;35993;52.604;10.078;2022-08-19T07:51:59;5.55;;;3.08;;
50102;SDS011;35993;52.604;10.078;2022-08-19T07:54:28;4.57;;;2.95;;
50102;SDS011;35993;52.604;10.078;2022-08-19T07:56:57;4.00;;;3.20;;
50102;SDS011;35993;52.604;10.078;2022-08-19T07:59:22;5.03;;;3.15;;
50102;SDS011;35993;52.604;10.078;2022-08-19T08:01:49;4.35;;;2.83;;
50102;SDS011;35993;52.604;10.078;2022-08-19T08:04:16;5.82;;;3.33;;
50102;SDS011;35993;52.604;10.078;2022-08-19T08:07:02;7.43;;;3.10;;
50102;SDS011;35993;52.604;10.078;2022-08-19T08:09:47;5.85;;;3.20;;
50102;SDS011;35993;52.604;10.078;2022-08-19T08:12:15;5.57;;;2.90;;
50102;SDS011;35993;52.604;10.078;2022-08-19T08:14:44;5.05;;;2.90;;
50102;SDS011;35993;52.604;10.078;2022-08-19T08:17:13;5.40;;;2.92;;
50102;SDS011;35993;52.604;10.078;2022-08-19T08:19:40;4.82;;;3.10;;
50102;SDS011;35993;52.604;10.078;2022-08-19T08:22:06;4.53;;;3.13;;
50102;SDS011;35993;52.604;10.078;2022-08-19T08:24:33;5.03;;;2.95;;
50102;SDS011;35993;52.604;10.078;2022-08-19T08:26:59;4.60;;;3.40;;
50102;SDS011;35993;52.604;10.078;2022-08-19T08:29:26;4.28;;;2.80;;
50102;SDS011;35993;52.604;10.078;2022-08-19T08:31:53;5.47;;;3.38;;
50102;SDS011;35993;52.604;10.078;2022-08-19T08:34:19;4.75;;;3.20;;
50102;SDS011;35993;52.604;10.078;2022-08-19T08:36:46;4.25;;;2.95;;
50102;SDS011;35993;52.604;10.078;2022-08-19T08:39:13;5.43;;;3.50;;
50102;SDS011;35993;52.604;10.078;2022-08-19T08:47:22;4.18;;;3.08;;
50102;SDS011;35993;52.604;10.078;2022-08-19T08:49:54;5.15;;;3.55;;
50102;SDS011;35993;52.604;10.078;2022-08-19T08:52:25;4.43;;;3.67;;
50102;SDS011;35993;52.604;10.078;2022-08-19T08:54:55;5.55;;;3.58;;
50102;SDS011;35993;52.604;10.078;2022-08-19T09:00:44;5.15;;;3.17;;
50102;SDS011;35993;52.604;10.078;2022-08-19T09:03:16;5.45;;;3.30;;
50102;SDS011;35993;52.604;10.078;2022-08-19T09:10:55;6.78;;;4.00;;
50102;SDS011;35993;52.604;10.078;2022-08-19T09:13:34;6.35;;;4.00;;
50102;SDS011;35993;52.604;10.078;2022-08-19T09:16:10;6.63;;;3.83;;
50102;SDS011;35993;52.604;10.078;2022-08-19T09:21:07;5.53;;;4.10;;
50102;SDS011;35993;52.604;10.078;2022-08-19T09:23:34;6.32;;;4.05;;
50102;SDS011;35993;52.604;10.078;2022-08-19T09:26:04;5.70;;;3.95;;
50102;SDS011;35993;52.604;10.078;2022-08-19T09:28:42;5.00;;;3.60;;
50102;SDS011;35993;52.604;10.078;2022-08-19T09:31:11;6.43;;;4.05;;
50102;SDS011;35993;52.604;10.078;2022-08-19T09:33:57;6.70;;;3.97;;
50102;SDS011;35993;52.604;10.078;2022-08-19T09:36:43;5.15;;;3.88;;
50102;SDS011;35993;52.604;10.078;2022-08-19T09:39:29;6.40;;;3.88;;
50102;SDS011;35993;52.604;10.078;2022-08-19T09:42:16;6.00;;;4.05;;
50102;SDS011;35993;52.604;10.078;2022-08-19T09:45:03;6.28;;;4.50;;
50102;SDS011;35993;52.604;10.078;2022-08-19T09:47:50;5.35;;;4.13;;
50102;SDS011;35993;52.604;10.078;2022-08-19T09:50:38;4.32;;;3.63;;
50102;SDS011;35993;52.604;10.078;2022-08-19T09:53:24;5.20;;;3.90;;
50102;SDS011;35993;52.604;10.078;2022-08-19T09:56:10;5.18;;;3.90;;
50102;SDS011;35993;52.604;10.078;2022-08-19T09:58:58;7.47;;;3.90;;
50102;SDS011;35993;52.604;10.078;2022-08-19T10:01:45;4.45;;;3.25;;
50102;SDS011;35993;52.604;10.078;2022-08-19T10:04:31;4.70;;;3.70;;
50102;SDS011;35993;52.604;10.078;2022-08-19T10:07:36;5.95;;;3.53;;
50102;SDS011;35993;52.604;10.078;2022-08-19T10:10:23;5.32;;;3.17;;
50102;SDS011;35993;52.604;10.078;2022-08-19T10:13:10;6.63;;;3.25;;
50102;SDS011;35993;52.604;10.078;2022-08-19T10:15:57;3.60;;;3.13;;
50102;SDS011;35993;52.604;10.078;2022-08-19T10:18:51;4.78;;;3.50;;
50102;SDS011;35993;52.604;10.078;2022-08-19T10:21:40;4.88;;;3.17;;
50102;SDS011;35993;52.604;10.078;2022-08-19T10:24:08;4.85;;;3.78;;
50102;SDS011;35993;52.604;10.078;2022-08-19T10:26:35;4.78;;;3.50;;
50102;SDS011;35993;52.604;10.078;2022-08-19T10:29:03;4.57;;;3.22;;
50102;SDS011;35993;52.604;10.078;2022-08-19T10:31:31;3.78;;;3.22;;
50102;SDS011;35993;52.604;10.078;2022-08-19T10:34:00;4.28;;;3.60;;
50102;SDS011;35993;52.604;10.078;2022-08-19T10:36:29;5.07;;;3.70;;
50102;SDS011;35993;52.604;10.078;2022-08-19T10:39:00;5.75;;;3.55;;
50102;SDS011;35993;52.604;10.078;2022-08-19T10:41:30;5.38;;;3.60;;
50102;SDS011;35993;52.604;10.078;2022-08-19T10:43:59;7.43;;;4.38;;
50102;SDS011;35993;52.604;10.078;2022-08-19T10:46:37;4.93;;;3.90;;
50102;SDS011;35993;52.604;10.078;2022-08-19T10:51:33;7.05;;;4.55;;
50102;SDS011;35993;52.604;10.078;2022-08-19T10:54:20;5.10;;;3.28;;
50102;SDS011;35993;52.604;10.078;2022-08-19T10:56:45;4.97;;;3.80;;
50102;SDS011;35993;52.604;10.078;2022-08-19T10:59:20;5.07;;;4.13;;
50102;SDS011;35993;52.604;10.078;2022-08-19T11:01:49;6.15;;;3.95;;
50102;SDS011;35993;52.604;10.078;2022-08-19T11:04:17;6.57;;;4.28;;
50102;SDS011;35993;52.604;10.078;2022-08-19T11:06:44;5.85;;;4.40;;
50102;SDS011;35993;52.604;10.078;2022-08-19T11:09:17;4.75;;;3.60;;
50102;SDS011;35993;52.604;10.078;2022-08-19T11:11:44;4.53;;;3.72;;
50102;SDS011;35993;52.604;10.078;2022-08-19T11:14:14;6.68;;;4.13;;
50102;SDS011;35993;52.604;10.078;2022-08-19T11:16:41;4.32;;;3.47;;
50102;SDS011;35993;52.604;10.078;2022-08-19T11:19:08;3.50;;;3.03;;
50102;SDS011;35993;52.604;10.078;2022-08-19T11:21:39;4.53;;;3.80;;
50102;SDS011;35993;52.604;10.078;2022-08-19T11:24:11;4.70;;;3.95;;
50102;SDS011;35993;52.604;10.078;2022-08-19T11:26:40;6.10;;;4.18;;
50102;SDS011;35993;52.604;10.078;2022-08-19T11:29:08;6.68;;;3.97;;
50102;SDS011;35993;52.604;10.078;2022-08-19T11:31:39;5.43;;;3.90;;
50102;SDS011;35993;52.604;10.078;2022-08-19T11:34:15;4.55;;;3.80;;
50102;SDS011;35993;52.604;10.078;2022-08-19T11:36:43;5.57;;;3.88;;
50102;SDS011;35993;52.604;10.078;2022-08-19T11:39:30;4.80;;;3.63;;
50102;SDS011;35993;52.604;10.078;2022-08-19T11:42:17;4.20;;;3.40;;
50102;SDS011;35993;52.604;10.078;2022-08-19T11:45:26;5.65;;;3.85;;
50102;SDS011;35993;52.604;10.078;2022-08-19T11:48:13;6.35;;;4.00;;
50102;SDS011;35993;52.604;10.078;2022-08-19T11:51:02;4.35;;;3.50;;
50102;SDS011;35993;52.604;10.078;2022-08-19T11:53:52;4.90;;;3.47;;
50102;SDS011;35993;52.604;10.078;2022-08-19T11:56:39;4.22;;;3.70;;
50102;SDS011;35993;52.604;10.078;2022-08-19T11:59:25;4.10;;;3.55;;
50102;SDS011;35993;52.604;10.078;2022-08-19T12:02:12;3.92;;;3.30;;
50102;SDS011;35993;52.604;10.078;2022-08-19T12:05:00;4.75;;;3.80;;
50102;SDS011;35993;52.604;10.078;2022-08-19T12:07:48;5.13;;;3.83;;
50102;SDS011;35993;52.604;10.078;2022-08-19T12:10:35;5.25;;;3.90;;
50102;SDS011;35993;52.604;10.078;2022-08-19T12:13:21;6.53;;;4.25;;
50102;SDS011;35993;52.604;10.078;2022-08-19T12:16:07;5.20;;;4.00;;
50102;SDS011;35993;52.604;10.078;2022-08-19T12:18:58;4.38;;;3.70;;
50102;SDS011;35993;52.604;10.078;2022-08-19T12:21:29;7.00;;;4.20;;
50102;SDS011;35993;52.604;10.078;2022-08-19T12:23:56;4.22;;;3.40;;
50102;SDS011;35993;52.604;10.078;2022-08-19T12:26:23;4.50;;;3.38;;
50102;SDS011;35993;52.604;10.078;2022-08-19T12:28:50;5.03;;;3.53;;
50102;SDS011;35993;52.604;10.078;2022-08-19T12:31:16;3.30;;;2.85;;
50102;SDS011;35993;52.604;10.078;2022-08-19T12:33:45;6.10;;;3.58;;
50102;SDS011;35993;52.604;10.078;2022-08-19T12:36:12;4.30;;;3.67;;
50102;SDS011;35993;52.604;10.078;2022-08-19T12:38:40;4.55;;;3.67;;
50102;SDS011;35993;52.604;10.078;2022-08-19T12:41:08;6.15;;;3.65;;
50102;SDS011;35993;52.604;10.078;2022-08-19T12:43:37;5.15;;;3.72;;
50102;SDS011;35993;52.604;10.078;2022-08-19T12:46:04;4.65;;;4.15;;
50102;SDS011;35993;52.604;10.078;2022-08-19T12:48:31;5.32;;;3.60;;
50102;SDS011;35993;52.604;10.078;2022-08-19T12:50:57;5.95;;;3.63;;
50102;SDS011;35993;52.604;10.078;2022-08-19T12:53:23;5.20;;;3.80;;
50102;SDS011;35993;52.604;10.078;2022-08-19T12:55:56;7.45;;;3.67;;
50102;SDS011;35993;52.604;10.078;2022-08-19T12:58:25;3.92;;;3.47;;
50102;SDS011;35993;52.604;10.078;2022-08-19T13:00:52;5.70;;;3.40;;
50102;SDS011;35993;52.604;10.078;2022-08-19T13:03:18;4.50;;;3.78;;
50102;SDS011;35993;52.604;10.078;2022-08-19T13:05:43;6.28;;;3.75;;
50102;SDS011;35993;52.604;10.078;2022-08-19T13:08:09;5.88;;;3.83;;
50102;SDS011;35993;52.604;10.078;2022-08-19T13:10:35;4.22;;;3.83;;
50102;SDS011;35993;52.604;10.078;2022-08-19T13:13:02;4.50;;;3.60;;
50102;SDS011;35993;52.604;10.078;2022-08-19T13:15:33;5.10;;;3.90;;
50102;SDS011;35993;52.604;10.078;2022-08-19T13:18:00;6.00;;;4.00;;
50102;SDS011;35993;52.604;10.078;2022-08-19T13:20:25;4.32;;;3.78;;
50102;SDS011;35993;52.604;10.078;2022-08-19T13:22:52;4.30;;;3.78;;
50102;SDS011;35993;52.604;10.078;2022-08-19T13:25:18;5.53;;;4.32;;
50102;SDS011;35993;52.604;10.078;2022-08-19T13:27:45;4.65;;;4.03;;
50102;SDS011;35993;52.604;10.078;2022-08-19T13:30:12;4.32;;;3.72;;
50102;SDS011;35993;52.604;10.078;2022-08-19T13:32:59;4.80;;;3.85;;
50102;SDS011;35993;52.604;10.078;2022-08-19T13:38:03;5.35;;;3.88;;
50102;SDS011;35993;52.604;10.078;2022-08-19T13:40:30;5.82;;;3.95;;
50102;SDS011;35993;52.604;10.078;2022-08-19T13:42:59;7.38;;;4.22;;
50102;SDS011;35993;52.604;10.078;2022-08-19T13:45:26;5.40;;;3.92;;
50102;SDS011;35993;52.604;10.078;2022-08-19T13:47:54;4.35;;;3.80;;
50102;SDS011;35993;52.604;10.078;2022-08-19T13:50:23;4.30;;;3.85;;
50102;SDS011;35993;52.604;10.078;2022-08-19T13:52:50;5.28;;;4.20;;
50102;SDS011;35993;52.604;10.078;2022-08-19T13:55:17;6.07;;;4.05;;
50102;SDS011;35993;52.604;10.078;2022-08-19T13:57:42;6.03;;;3.90;;
50102;SDS011;35993;52.604;10.078;2022-08-19T14:00:09;4.30;;;3.70;;
50102;SDS011;35993;52.604;10.078;2022-08-19T14:02:39;5.22;;;3.90;;
50102;SDS011;35993;52.604;10.078;2022-08-19T14:05:07;6.47;;;4.10;;
50102;SDS011;35993;52.604;10.078;2022-08-19T14:07:35;5.95;;;3.83;;
50102;SDS011;35993;52.604;10.078;2022-08-19T14:10:02;5.38;;;3.60;;
50102;SDS011;35993;52.604;10.078;2022-08-19T14:12:29;5.60;;;3.72;;
50102;SDS011;35993;52.604;10.078;2022-08-19T14:14:57;4.70;;;4.15;;
50102;SDS011;35993;52.604;10.078;2022-08-19T14:17:23;4.40;;;3.70;;
50102;SDS011;35993;52.604;10.078;2022-08-19T14:19:55;5.00;;;3.80;;
50102;SDS011;35993;52.604;10.078;2022-08-19T14:22:21;5.13;;;3.80;;
50102;SDS011;35993;52.604;10.078;2022-08-19T14:24:47;4.72;;;3.53;;
50102;SDS011;35993;52.604;10.078;2022-08-19T14:27:13;5.78;;;3.72;;
50102;SDS011;35993;52.604;10.078;2022-08-19T14:29:39;5.47;;;3.88;;
50102;SDS011;35993;52.604;10.078;2022-08-19T14:32:05;7.72;;;3.60;;
50102;SDS011;35993;52.604;10.078;2022-08-19T14:34:31;5.47;;;3.58;;
50102;SDS011;35993;52.604;10.078;2022-08-19T14:36:57;5.22;;;3.78;;
50102;SDS011;35993;52.604;10.078;2022-08-19T14:39:23;5.15;;;4.10;;
50102;SDS011;35993;52.604;10.078;2022-08-19T14:41:48;4.22;;;3.55;;
50102;SDS011;35993;52.604;10.078;2022-08-19T14:44:14;4.55;;;3.67;;
50102;SDS011;35993;52.604;10.078;2022-08-19T14:46:40;4.38;;;3.83;;
50102;SDS011;35993;52.604;10.078;2022-08-19T14:49:06;4.65;;;3.70;;
50102;SDS011;35993;52.604;10.078;2022-08-19T14:51:32;5.90;;;3.80;;
50102;SDS011;35993;52.604;10.078;2022-08-19T14:53:58;4.25;;;3.28;;
50102;SDS011;35993;52.604;10.078;2022-08-19T14:56:25;4.00;;;3.58;;
50102;SDS011;35993;52.604;10.078;2022-08-19T14:58:52;4.22;;;3.60;;
50102;SDS011;35993;52.604;10.078;2022-08-19T15:01:19;3.60;;;3.30;;
50102;SDS011;35993;52.604;10.078;2022-08-19T15:03:47;5.90;;;3.90;;
50102;SDS011;35993;52.604;10.078;2022-08-19T15:06:14;4.50;;;3.53;;
50102;SDS011;35993;52.604;10.078;2022-08-19T15:08:41;4.30;;;3.90;;
50102;SDS011;35993;52.604;10.078;2022-08-19T15:11:12;4.20;;;3.60;;
50102;SDS011;35993;52.604;10.078;2022-08-19T15:13:41;4.38;;;3.70;;